• Join FlightAware (Why Join?)
  • Login
  • US Flag 
12:39AM EDT


 

Airport Tracker/Info


-or-


 

Live Flight TrackerFlight Track Log ✈ N449ND ✈ 28-Mar-2014 ✈ KDAB - KFPR

Flight Track Log - Related Links

Times and Time Zones

All times are in EDT time to prevent confusion due to time zone crossing. See the N449ND flight status page for this flight to view local times or setup timezone preferences in your user account.

Time Position Orientation Groundspeed Altitude Reporting Facility
EDT Latitude Longitude Course Direction KTS MPH feet Rate Location/Type
01:39AM 28.9667 -80.9333 139° Southeast 94 108 4,600  Level Orlando TRACON
01:40AM 28.9500 -80.9167 139° Southeast 92 106 4,600 -60 Level Orlando TRACON
01:41AM 28.9333 -80.9000 139° Southeast 91 105 4,500 -60 Descending Orlando TRACON
01:42AM 28.9000 -80.9000 180° South 93 107 4,500  Level Orlando TRACON
01:43AM 28.8833 -80.8833 139° Southeast 89 102 4,500  Level Orlando TRACON
01:44AM 28.8500 -80.8833 180° South 91 105 4,500  Level Orlando TRACON
01:45AM 28.8333 -80.8667 139° Southeast 90 104 4,500  Level Orlando TRACON
01:46AM 28.8167 -80.8667 180° South 92 106 4,500  Level Orlando TRACON
01:47AM 28.7833 -80.8500 156° South 91 105 4,500  Level Orlando TRACON
01:48AM 28.7667 -80.8500 180° South 92 106 4,600  Climbing Orlando TRACON
01:49AM 28.7333 -80.8333 156° South 93 107 4,500 -60 Descending Orlando TRACON
01:50AM 28.7167 -80.8333 180° South 93 107 4,500  Level Orlando TRACON
01:51AM 28.6833 -80.8167 156° South 91 105 4,500  Level Orlando TRACON
01:52AM 28.6667 -80.8167 180° South 92 106 4,500 -60 Level Orlando TRACON
01:53AM 28.6333 -80.8167 180° South 91 105 4,400  Descending Orlando TRACON
01:54AM 28.6167 -80.8167 180° South 87 100 4,500  Climbing Orlando TRACON
01:55AM 28.5833 -80.8000 156° South 90 104 4,500  Level Orlando TRACON
01:56AM 28.5667 -80.8000 180° South 87 100 4,500  Level Orlando TRACON
01:57AM 28.5333 -80.7833 156° South 89 102 4,500  Level Orlando TRACON
01:58AM 28.5167 -80.7833 180° South 88 101 4,500  Level Orlando TRACON
01:59AM 28.5000 -80.7667 139° Southeast 87 100 4,500  Level Orlando TRACON
02:00AM 28.4667 -80.7667 180° South 89 102 4,500  Level Orlando TRACON
02:01AM 28.4500 -80.7500 139° Southeast 88 101 4,500  Level Orlando TRACON
02:02AM 28.4167 -80.7500 180° South 86 99 4,500  Level Orlando TRACON
02:03AM 28.4000 -80.7500 180° South 88 101 4,500  Level Orlando TRACON
02:04AM 28.3833 -80.7333 139° Southeast 87 100 4,500  Level Orlando TRACON
02:05AM 28.3500 -80.7333 180° South 89 102 4,500  Level Orlando TRACON
02:06AM 28.3333 -80.7167 139° Southeast 89 102 4,500  Level Orlando TRACON
02:07AM 28.3000 -80.7167 180° South 87 100 4,500  Level Orlando TRACON
02:08AM 28.2833 -80.7000 139° Southeast 89 102 4,500  Level Orlando TRACON
02:09AM 28.2667 -80.7000 180° South 89 102 4,500  Level Orlando TRACON
02:10AM 28.2333 -80.6833 156° South 85 98 4,500  Level Orlando TRACON
02:11AM 28.2167 -80.6833 180° South 88 101 4,500  Level Orlando TRACON
02:12AM 28.2000 -80.6667 139° Southeast 88 101 4,500  Level Orlando TRACON
02:13AM 28.1667 -80.6500 156° South 87 100 4,500  Level Orlando TRACON
02:14AM 28.1500 -80.6333 139° Southeast 86 99 4,500  Level Orlando TRACON
02:15AM 28.1167 -80.6333 180° South 85 98 4,500 -120 Level Orlando TRACON
02:17AM 28.0864 -80.6222 162° South 79 91 4,200 -300 Descending Miami Center
02:18AM 28.0678 -80.6169 166° South 84 97 3,800 -480 Descending Miami Center
02:19AM 28.0431 -80.6067 160° South 89 102 3,300 -180 Descending Miami Center
02:20AM 28.0267 -80.5967 152° Southeast 83 96 3,500 60 Climbing Miami Center
02:21AM 28.0061 -80.5819 148° Southeast 71 82 3,500  Level Miami Center
02:22AM 27.9878 -80.5694 149° Southeast 71 82 3,600  Climbing Miami Center
02:23AM 27.9692 -80.5594 155° Southeast 71 82 3,600 -240 Level Miami Center
02:24AM 27.9486 -80.5447 148° Southeast 77 89 3,200 -300 Descending Miami Center
02:25AM 27.9300 -80.5347 155° Southeast 77 89 3,000 -120 Descending Miami Center
02:26AM 27.9075 -80.5200 150° Southeast 82 94 3,000  Level Miami Center
02:27AM 27.8869 -80.5122 162° South 82 94 3,000  Level Miami Center
02:28AM 27.8683 -80.4975 145° Southeast 82 94 3,000 -60 Level Miami Center
02:29AM 27.8497 -80.4922 166° South 82 94 2,900 -60 Descending Miami Center
02:30AM 27.8269 -80.4844 163° South 90 104 2,900  Level Miami Center
02:31AM 27.8022 -80.4719 156° South 90 104 2,900 -240 Level Miami Center
02:32AM 27.7817 -80.4594 152° Southeast 90 104 2,500 -300 Descending Miami Center
02:33AM 27.7611 -80.4519 162° South 90 104 2,300 -60 Descending Miami Center
02:34AM 27.7425 -80.4467 166° South 84 97 2,400  Climbing Miami Center
02:35AM 27.7217 -80.4389 162° South 84 97 2,400  Level Miami Center
02:36AM 27.7008 -80.4336 167° South 79 91 2,500  Climbing Miami Center
02:37AM 27.6800 -80.4400 195° South 79 91 2,400  Descending Miami Center
02:38AM 27.6567 -80.4486 198° South 89 102 2,500 60 Climbing Miami Center